sensor_id;sensor_type;location;lat;lon;timestamp;P1;durP1;ratioP1;P2;durP2;ratioP2
40807;SDS011;26523;52.504;13.498;2023-05-07T00:01:39;21.63;;;10.38;;
40807;SDS011;26523;52.504;13.498;2023-05-07T00:04:05;16.55;;;8.77;;
40807;SDS011;26523;52.504;13.498;2023-05-07T00:06:31;19.75;;;9.65;;
40807;SDS011;26523;52.504;13.498;2023-05-07T00:08:58;17.95;;;9.18;;
40807;SDS011;26523;52.504;13.498;2023-05-07T00:11:24;15.77;;;9.02;;
40807;SDS011;26523;52.504;13.498;2023-05-07T00:13:50;18.27;;;9.88;;
40807;SDS011;26523;52.504;13.498;2023-05-07T00:16:16;17.85;;;9.25;;
40807;SDS011;26523;52.504;13.498;2023-05-07T00:18:42;14.93;;;9.05;;
40807;SDS011;26523;52.504;13.498;2023-05-07T00:21:07;17.48;;;8.65;;
40807;SDS011;26523;52.504;13.498;2023-05-07T00:23:33;16.50;;;8.35;;
40807;SDS011;26523;52.504;13.498;2023-05-07T00:25:59;17.30;;;8.73;;
40807;SDS011;26523;52.504;13.498;2023-05-07T00:28:24;17.10;;;8.57;;
40807;SDS011;26523;52.504;13.498;2023-05-07T00:30:50;15.55;;;9.07;;
40807;SDS011;26523;52.504;13.498;2023-05-07T00:33:16;18.15;;;9.50;;
40807;SDS011;26523;52.504;13.498;2023-05-07T00:35:42;18.23;;;8.85;;
40807;SDS011;26523;52.504;13.498;2023-05-07T00:38:08;13.98;;;8.60;;
40807;SDS011;26523;52.504;13.498;2023-05-07T00:40:34;16.88;;;9.43;;
40807;SDS011;26523;52.504;13.498;2023-05-07T00:42:59;17.70;;;9.32;;
40807;SDS011;26523;52.504;13.498;2023-05-07T00:45:26;19.20;;;9.55;;
40807;SDS011;26523;52.504;13.498;2023-05-07T00:47:54;20.88;;;8.98;;
40807;SDS011;26523;52.504;13.498;2023-05-07T00:50:25;19.48;;;9.95;;
40807;SDS011;26523;52.504;13.498;2023-05-07T00:52:51;20.63;;;9.60;;
40807;SDS011;26523;52.504;13.498;2023-05-07T00:55:17;17.27;;;9.10;;
40807;SDS011;26523;52.504;13.498;2023-05-07T00:57:43;16.35;;;9.13;;
40807;SDS011;26523;52.504;13.498;2023-05-07T01:00:10;15.95;;;9.02;;
40807;SDS011;26523;52.504;13.498;2023-05-07T01:02:40;15.50;;;8.73;;
40807;SDS011;26523;52.504;13.498;2023-05-07T01:05:16;19.50;;;9.65;;
40807;SDS011;26523;52.504;13.498;2023-05-07T01:07:43;19.75;;;10.32;;
40807;SDS011;26523;52.504;13.498;2023-05-07T01:10:10;20.95;;;9.88;;
40807;SDS011;26523;52.504;13.498;2023-05-07T01:12:37;21.15;;;9.38;;
40807;SDS011;26523;52.504;13.498;2023-05-07T01:15:07;17.63;;;9.73;;
40807;SDS011;26523;52.504;13.498;2023-05-07T01:17:40;18.75;;;9.48;;
40807;SDS011;26523;52.504;13.498;2023-05-07T01:20:08;16.38;;;9.18;;
40807;SDS011;26523;52.504;13.498;2023-05-07T01:22:35;15.65;;;9.45;;
40807;SDS011;26523;52.504;13.498;2023-05-07T01:25:03;16.45;;;8.60;;
40807;SDS011;26523;52.504;13.498;2023-05-07T01:27:29;15.73;;;8.32;;
40807;SDS011;26523;52.504;13.498;2023-05-07T01:29:55;14.25;;;8.23;;
40807;SDS011;26523;52.504;13.498;2023-05-07T01:34:54;17.77;;;7.73;;
40807;SDS011;26523;52.504;13.498;2023-05-07T01:37:22;15.65;;;8.55;;
40807;SDS011;26523;52.504;13.498;2023-05-07T01:39:49;14.65;;;8.57;;
40807;SDS011;26523;52.504;13.498;2023-05-07T01:42:15;14.57;;;8.10;;
40807;SDS011;26523;52.504;13.498;2023-05-07T01:44:41;18.90;;;8.82;;
40807;SDS011;26523;52.504;13.498;2023-05-07T01:47:06;15.50;;;8.18;;
40807;SDS011;26523;52.504;13.498;2023-05-07T01:49:33;14.75;;;9.00;;
40807;SDS011;26523;52.504;13.498;2023-05-07T01:51:59;13.75;;;8.27;;
40807;SDS011;26523;52.504;13.498;2023-05-07T01:54:26;16.17;;;8.10;;
40807;SDS011;26523;52.504;13.498;2023-05-07T01:56:58;15.63;;;8.35;;
40807;SDS011;26523;52.504;13.498;2023-05-07T01:59:24;15.00;;;8.18;;
40807;SDS011;26523;52.504;13.498;2023-05-07T02:01:50;16.83;;;8.20;;
40807;SDS011;26523;52.504;13.498;2023-05-07T02:04:15;16.05;;;9.23;;
40807;SDS011;26523;52.504;13.498;2023-05-07T02:06:41;14.35;;;8.18;;
40807;SDS011;26523;52.504;13.498;2023-05-07T02:09:06;20.08;;;9.13;;
40807;SDS011;26523;52.504;13.498;2023-05-07T02:11:33;18.23;;;9.48;;
40807;SDS011;26523;52.504;13.498;2023-05-07T02:13:59;17.85;;;8.43;;
40807;SDS011;26523;52.504;13.498;2023-05-07T02:16:25;17.48;;;8.25;;
40807;SDS011;26523;52.504;13.498;2023-05-07T02:18:50;15.68;;;7.78;;
40807;SDS011;26523;52.504;13.498;2023-05-07T02:21:16;15.70;;;8.93;;
40807;SDS011;26523;52.504;13.498;2023-05-07T02:23:42;13.07;;;8.00;;
40807;SDS011;26523;52.504;13.498;2023-05-07T02:26:08;17.27;;;8.77;;
40807;SDS011;26523;52.504;13.498;2023-05-07T02:28:34;16.58;;;9.30;;
40807;SDS011;26523;52.504;13.498;2023-05-07T02:31:03;13.63;;;8.60;;
40807;SDS011;26523;52.504;13.498;2023-05-07T02:33:29;15.43;;;8.93;;
40807;SDS011;26523;52.504;13.498;2023-05-07T02:35:55;19.27;;;9.00;;
40807;SDS011;26523;52.504;13.498;2023-05-07T02:38:21;15.15;;;8.13;;
40807;SDS011;26523;52.504;13.498;2023-05-07T02:40:47;16.45;;;8.15;;
40807;SDS011;26523;52.504;13.498;2023-05-07T02:43:13;13.18;;;8.30;;
40807;SDS011;26523;52.504;13.498;2023-05-07T02:45:38;15.63;;;7.82;;
40807;SDS011;26523;52.504;13.498;2023-05-07T02:48:04;15.20;;;8.65;;
40807;SDS011;26523;52.504;13.498;2023-05-07T02:50:31;14.85;;;8.07;;
40807;SDS011;26523;52.504;13.498;2023-05-07T02:52:57;14.48;;;8.57;;
40807;SDS011;26523;52.504;13.498;2023-05-07T02:55:23;17.05;;;7.88;;
40807;SDS011;26523;52.504;13.498;2023-05-07T02:57:49;15.23;;;8.85;;
40807;SDS011;26523;52.504;13.498;2023-05-07T03:00:16;14.15;;;6.70;;
40807;SDS011;26523;52.504;13.498;2023-05-07T03:02:43;17.05;;;7.97;;
40807;SDS011;26523;52.504;13.498;2023-05-07T03:05:09;11.48;;;6.88;;
40807;SDS011;26523;52.504;13.498;2023-05-07T03:07:36;12.73;;;6.85;;
40807;SDS011;26523;52.504;13.498;2023-05-07T03:10:02;18.75;;;8.98;;
40807;SDS011;26523;52.504;13.498;2023-05-07T03:12:28;13.80;;;7.72;;
40807;SDS011;26523;52.504;13.498;2023-05-07T03:14:54;17.13;;;8.68;;
40807;SDS011;26523;52.504;13.498;2023-05-07T03:17:21;19.08;;;9.10;;
40807;SDS011;26523;52.504;13.498;2023-05-07T03:19:47;17.08;;;8.63;;
40807;SDS011;26523;52.504;13.498;2023-05-07T03:22:12;14.73;;;7.60;;
40807;SDS011;26523;52.504;13.498;2023-05-07T03:24:38;16.05;;;9.05;;
40807;SDS011;26523;52.504;13.498;2023-05-07T03:27:04;17.08;;;8.15;;
40807;SDS011;26523;52.504;13.498;2023-05-07T03:29:30;17.58;;;8.30;;
40807;SDS011;26523;52.504;13.498;2023-05-07T03:31:55;17.20;;;8.80;;
40807;SDS011;26523;52.504;13.498;2023-05-07T03:34:21;15.30;;;8.65;;
40807;SDS011;26523;52.504;13.498;2023-05-07T03:36:50;17.23;;;8.77;;
40807;SDS011;26523;52.504;13.498;2023-05-07T03:39:16;16.55;;;8.35;;
40807;SDS011;26523;52.504;13.498;2023-05-07T03:41:42;16.10;;;8.65;;
40807;SDS011;26523;52.504;13.498;2023-05-07T03:44:07;13.95;;;7.35;;
40807;SDS011;26523;52.504;13.498;2023-05-07T03:46:33;15.30;;;8.30;;
40807;SDS011;26523;52.504;13.498;2023-05-07T03:48:59;15.10;;;7.90;;
40807;SDS011;26523;52.504;13.498;2023-05-07T03:51:25;18.70;;;8.52;;
40807;SDS011;26523;52.504;13.498;2023-05-07T03:53:51;14.63;;;8.63;;
40807;SDS011;26523;52.504;13.498;2023-05-07T03:56:22;14.15;;;7.90;;
40807;SDS011;26523;52.504;13.498;2023-05-07T03:58:48;16.45;;;7.38;;
40807;SDS011;26523;52.504;13.498;2023-05-07T04:01:13;15.25;;;7.55;;
40807;SDS011;26523;52.504;13.498;2023-05-07T04:03:39;18.08;;;8.07;;
40807;SDS011;26523;52.504;13.498;2023-05-07T04:06:05;14.25;;;7.80;;
40807;SDS011;26523;52.504;13.498;2023-05-07T04:08:31;14.77;;;7.85;;
40807;SDS011;26523;52.504;13.498;2023-05-07T04:10:57;13.48;;;7.10;;
40807;SDS011;26523;52.504;13.498;2023-05-07T04:13:23;11.88;;;6.97;;
40807;SDS011;26523;52.504;13.498;2023-05-07T04:15:50;10.60;;;6.70;;
40807;SDS011;26523;52.504;13.498;2023-05-07T04:18:16;14.48;;;7.75;;
40807;SDS011;26523;52.504;13.498;2023-05-07T04:20:42;11.50;;;6.47;;
40807;SDS011;26523;52.504;13.498;2023-05-07T04:23:07;11.50;;;6.97;;
40807;SDS011;26523;52.504;13.498;2023-05-07T04:25:33;13.73;;;7.50;;
40807;SDS011;26523;52.504;13.498;2023-05-07T04:27:59;16.05;;;8.23;;
40807;SDS011;26523;52.504;13.498;2023-05-07T04:30:25;13.45;;;6.93;;
40807;SDS011;26523;52.504;13.498;2023-05-07T04:32:52;10.05;;;6.63;;
40807;SDS011;26523;52.504;13.498;2023-05-07T04:35:18;12.88;;;6.40;;
40807;SDS011;26523;52.504;13.498;2023-05-07T04:37:43;15.23;;;6.85;;
40807;SDS011;26523;52.504;13.498;2023-05-07T04:40:09;15.10;;;7.07;;
40807;SDS011;26523;52.504;13.498;2023-05-07T04:42:35;11.55;;;5.95;;
40807;SDS011;26523;52.504;13.498;2023-05-07T04:45:01;15.65;;;6.90;;
40807;SDS011;26523;52.504;13.498;2023-05-07T04:47:27;12.40;;;6.75;;
40807;SDS011;26523;52.504;13.498;2023-05-07T04:49:53;9.25;;;5.35;;
40807;SDS011;26523;52.504;13.498;2023-05-07T04:52:18;14.25;;;5.70;;
40807;SDS011;26523;52.504;13.498;2023-05-07T04:54:45;13.30;;;6.35;;
40807;SDS011;26523;52.504;13.498;2023-05-07T04:57:10;10.40;;;5.63;;
40807;SDS011;26523;52.504;13.498;2023-05-07T04:59:36;12.65;;;6.00;;
40807;SDS011;26523;52.504;13.498;2023-05-07T05:02:02;9.82;;;5.13;;
40807;SDS011;26523;52.504;13.498;2023-05-07T05:04:29;14.40;;;5.40;;
40807;SDS011;26523;52.504;13.498;2023-05-07T05:06:55;10.93;;;4.95;;
40807;SDS011;26523;52.504;13.498;2023-05-07T05:09:21;10.20;;;5.32;;
40807;SDS011;26523;52.504;13.498;2023-05-07T05:11:47;10.13;;;4.93;;
40807;SDS011;26523;52.504;13.498;2023-05-07T05:14:13;12.90;;;5.47;;
40807;SDS011;26523;52.504;13.498;2023-05-07T05:16:38;10.05;;;5.43;;
40807;SDS011;26523;52.504;13.498;2023-05-07T05:19:04;13.70;;;5.72;;
40807;SDS011;26523;52.504;13.498;2023-05-07T05:21:30;8.20;;;4.72;;
40807;SDS011;26523;52.504;13.498;2023-05-07T05:23:57;9.48;;;5.70;;
40807;SDS011;26523;52.504;13.498;2023-05-07T05:26:23;10.05;;;5.15;;
40807;SDS011;26523;52.504;13.498;2023-05-07T05:28:48;12.23;;;5.38;;
40807;SDS011;26523;52.504;13.498;2023-05-07T05:31:15;7.90;;;4.55;;
40807;SDS011;26523;52.504;13.498;2023-05-07T05:33:41;10.63;;;5.53;;
40807;SDS011;26523;52.504;13.498;2023-05-07T05:36:08;11.80;;;5.57;;
40807;SDS011;26523;52.504;13.498;2023-05-07T05:38:34;13.05;;;6.40;;
40807;SDS011;26523;52.504;13.498;2023-05-07T05:41:00;15.93;;;5.57;;
40807;SDS011;26523;52.504;13.498;2023-05-07T05:43:26;13.32;;;6.32;;
40807;SDS011;26523;52.504;13.498;2023-05-07T05:45:51;10.40;;;5.30;;
40807;SDS011;26523;52.504;13.498;2023-05-07T05:48:17;9.70;;;5.60;;
40807;SDS011;26523;52.504;13.498;2023-05-07T05:50:43;8.68;;;5.53;;
40807;SDS011;26523;52.504;13.498;2023-05-07T05:53:08;13.07;;;5.43;;
40807;SDS011;26523;52.504;13.498;2023-05-07T05:55:34;12.13;;;5.72;;
40807;SDS011;26523;52.504;13.498;2023-05-07T05:58:00;10.50;;;5.90;;
40807;SDS011;26523;52.504;13.498;2023-05-07T06:00:28;12.32;;;5.57;;
40807;SDS011;26523;52.504;13.498;2023-05-07T06:02:54;9.38;;;5.30;;
40807;SDS011;26523;52.504;13.498;2023-05-07T06:05:20;11.55;;;5.45;;
40807;SDS011;26523;52.504;13.498;2023-05-07T06:07:46;12.35;;;5.20;;
40807;SDS011;26523;52.504;13.498;2023-05-07T06:10:12;11.07;;;5.75;;
40807;SDS011;26523;52.504;13.498;2023-05-07T06:12:37;12.27;;;5.30;;
40807;SDS011;26523;52.504;13.498;2023-05-07T06:15:05;11.18;;;5.57;;
40807;SDS011;26523;52.504;13.498;2023-05-07T06:17:31;8.45;;;5.20;;
40807;SDS011;26523;52.504;13.498;2023-05-07T06:19:56;10.38;;;5.03;;
40807;SDS011;26523;52.504;13.498;2023-05-07T06:22:22;8.27;;;4.82;;
40807;SDS011;26523;52.504;13.498;2023-05-07T06:24:48;11.57;;;4.97;;
40807;SDS011;26523;52.504;13.498;2023-05-07T06:27:13;10.13;;;5.10;;
40807;SDS011;26523;52.504;13.498;2023-05-07T06:29:39;9.80;;;5.18;;
40807;SDS011;26523;52.504;13.498;2023-05-07T06:32:12;7.43;;;4.07;;
40807;SDS011;26523;52.504;13.498;2023-05-07T06:34:38;13.23;;;5.10;;
40807;SDS011;26523;52.504;13.498;2023-05-07T06:37:05;10.57;;;5.18;;
40807;SDS011;26523;52.504;13.498;2023-05-07T06:39:32;9.07;;;4.80;;
40807;SDS011;26523;52.504;13.498;2023-05-07T06:41:58;14.57;;;5.43;;
40807;SDS011;26523;52.504;13.498;2023-05-07T06:44:25;8.68;;;4.60;;
40807;SDS011;26523;52.504;13.498;2023-05-07T06:46:50;10.30;;;4.53;;
40807;SDS011;26523;52.504;13.498;2023-05-07T06:49:16;7.45;;;4.47;;
40807;SDS011;26523;52.504;13.498;2023-05-07T06:51:42;11.45;;;4.25;;
40807;SDS011;26523;52.504;13.498;2023-05-07T06:56:58;6.85;;;4.05;;
40807;SDS011;26523;52.504;13.498;2023-05-07T06:59:24;9.73;;;4.40;;
40807;SDS011;26523;52.504;13.498;2023-05-07T07:01:49;13.63;;;3.75;;
40807;SDS011;26523;52.504;13.498;2023-05-07T07:04:15;9.82;;;3.92;;
40807;SDS011;26523;52.504;13.498;2023-05-07T07:06:41;6.30;;;3.50;;
40807;SDS011;26523;52.504;13.498;2023-05-07T07:09:06;6.45;;;3.30;;
40807;SDS011;26523;52.504;13.498;2023-05-07T07:11:32;7.97;;;3.03;;
40807;SDS011;26523;52.504;13.498;2023-05-07T07:13:58;8.27;;;3.75;;
40807;SDS011;26523;52.504;13.498;2023-05-07T07:16:24;6.95;;;3.40;;
40807;SDS011;26523;52.504;13.498;2023-05-07T07:18:49;4.60;;;2.92;;
40807;SDS011;26523;52.504;13.498;2023-05-07T07:21:16;9.82;;;3.05;;
40807;SDS011;26523;52.504;13.498;2023-05-07T07:23:41;10.98;;;3.05;;
40807;SDS011;26523;52.504;13.498;2023-05-07T07:26:07;6.82;;;3.22;;
40807;SDS011;26523;52.504;13.498;2023-05-07T07:28:33;5.65;;;2.95;;
40807;SDS011;26523;52.504;13.498;2023-05-07T07:30:58;6.40;;;2.78;;
40807;SDS011;26523;52.504;13.498;2023-05-07T07:33:24;6.70;;;3.15;;
40807;SDS011;26523;52.504;13.498;2023-05-07T07:35:49;4.93;;;2.55;;
40807;SDS011;26523;52.504;13.498;2023-05-07T07:38:15;6.82;;;2.40;;
40807;SDS011;26523;52.504;13.498;2023-05-07T07:40:41;5.68;;;2.75;;
40807;SDS011;26523;52.504;13.498;2023-05-07T07:43:06;5.38;;;2.83;;
40807;SDS011;26523;52.504;13.498;2023-05-07T07:45:32;11.75;;;5.15;;
40807;SDS011;26523;52.504;13.498;2023-05-07T07:47:58;8.48;;;4.97;;
40807;SDS011;26523;52.504;13.498;2023-05-07T07:50:23;3.40;;;2.15;;
40807;SDS011;26523;52.504;13.498;2023-05-07T07:52:49;6.57;;;2.55;;
40807;SDS011;26523;52.504;13.498;2023-05-07T07:55:15;4.47;;;2.38;;
40807;SDS011;26523;52.504;13.498;2023-05-07T07:57:46;5.93;;;2.60;;
40807;SDS011;26523;52.504;13.498;2023-05-07T08:00:11;4.05;;;2.35;;
40807;SDS011;26523;52.504;13.498;2023-05-07T08:02:37;4.45;;;2.38;;
40807;SDS011;26523;52.504;13.498;2023-05-07T08:05:03;5.38;;;2.00;;
40807;SDS011;26523;52.504;13.498;2023-05-07T08:07:29;4.70;;;2.20;;
40807;SDS011;26523;52.504;13.498;2023-05-07T08:09:55;4.85;;;2.33;;
40807;SDS011;26523;52.504;13.498;2023-05-07T08:12:20;3.63;;;2.10;;
40807;SDS011;26523;52.504;13.498;2023-05-07T08:14:46;4.45;;;2.17;;
40807;SDS011;26523;52.504;13.498;2023-05-07T08:17:12;6.88;;;2.42;;
40807;SDS011;26523;52.504;13.498;2023-05-07T08:19:40;3.90;;;2.22;;
40807;SDS011;26523;52.504;13.498;2023-05-07T08:22:06;4.72;;;2.72;;
40807;SDS011;26523;52.504;13.498;2023-05-07T08:24:32;6.38;;;2.25;;
40807;SDS011;26523;52.504;13.498;2023-05-07T08:26:57;3.55;;;2.17;;
40807;SDS011;26523;52.504;13.498;2023-05-07T08:29:23;9.57;;;2.80;;
40807;SDS011;26523;52.504;13.498;2023-05-07T08:31:49;2.78;;;2.03;;
40807;SDS011;26523;52.504;13.498;2023-05-07T08:34:14;6.10;;;2.40;;
40807;SDS011;26523;52.504;13.498;2023-05-07T08:36:40;2.70;;;1.90;;
40807;SDS011;26523;52.504;13.498;2023-05-07T08:39:06;6.50;;;2.35;;
40807;SDS011;26523;52.504;13.498;2023-05-07T08:41:32;4.00;;;2.25;;
40807;SDS011;26523;52.504;13.498;2023-05-07T08:43:58;3.67;;;2.00;;
40807;SDS011;26523;52.504;13.498;2023-05-07T08:46:27;4.15;;;1.92;;
40807;SDS011;26523;52.504;13.498;2023-05-07T08:48:56;3.95;;;1.95;;
40807;SDS011;26523;52.504;13.498;2023-05-07T08:51:22;5.30;;;2.60;;
40807;SDS011;26523;52.504;13.498;2023-05-07T08:53:49;5.95;;;2.88;;
40807;SDS011;26523;52.504;13.498;2023-05-07T08:56:15;5.68;;;1.92;;
40807;SDS011;26523;52.504;13.498;2023-05-07T08:58:42;6.30;;;2.38;;
40807;SDS011;26523;52.504;13.498;2023-05-07T09:01:09;5.18;;;2.67;;
40807;SDS011;26523;52.504;13.498;2023-05-07T09:03:38;5.32;;;2.55;;
40807;SDS011;26523;52.504;13.498;2023-05-07T09:06:05;6.53;;;2.60;;
40807;SDS011;26523;52.504;13.498;2023-05-07T09:08:32;5.32;;;2.50;;
40807;SDS011;26523;52.504;13.498;2023-05-07T09:10:58;6.38;;;2.65;;
40807;SDS011;26523;52.504;13.498;2023-05-07T09:13:24;5.82;;;2.33;;
40807;SDS011;26523;52.504;13.498;2023-05-07T09:15:52;3.13;;;2.03;;
40807;SDS011;26523;52.504;13.498;2023-05-07T09:18:17;5.10;;;2.17;;
40807;SDS011;26523;52.504;13.498;2023-05-07T09:20:43;6.13;;;2.55;;
40807;SDS011;26523;52.504;13.498;2023-05-07T09:23:09;4.75;;;2.22;;
40807;SDS011;26523;52.504;13.498;2023-05-07T09:25:35;6.63;;;2.33;;
40807;SDS011;26523;52.504;13.498;2023-05-07T09:28:02;7.53;;;2.30;;
40807;SDS011;26523;52.504;13.498;2023-05-07T09:30:32;4.78;;;2.28;;
40807;SDS011;26523;52.504;13.498;2023-05-07T09:33:00;4.80;;;2.45;;
40807;SDS011;26523;52.504;13.498;2023-05-07T09:35:26;7.00;;;2.42;;
40807;SDS011;26523;52.504;13.498;2023-05-07T09:37:53;4.43;;;2.38;;
40807;SDS011;26523;52.504;13.498;2023-05-07T09:40:24;3.47;;;1.98;;
40807;SDS011;26523;52.504;13.498;2023-05-07T09:42:55;3.92;;;2.05;;
40807;SDS011;26523;52.504;13.498;2023-05-07T09:45:21;6.03;;;2.42;;
40807;SDS011;26523;52.504;13.498;2023-05-07T09:47:53;4.65;;;1.90;;
40807;SDS011;26523;52.504;13.498;2023-05-07T09:50:22;4.63;;;1.90;;
40807;SDS011;26523;52.504;13.498;2023-05-07T09:52:53;4.90;;;1.90;;
40807;SDS011;26523;52.504;13.498;2023-05-07T09:55:20;3.80;;;1.80;;
40807;SDS011;26523;52.504;13.498;2023-05-07T09:57:49;3.63;;;1.67;;
40807;SDS011;26523;52.504;13.498;2023-05-07T10:00:17;3.05;;;1.52;;
40807;SDS011;26523;52.504;13.498;2023-05-07T10:02:45;3.00;;;1.40;;
40807;SDS011;26523;52.504;13.498;2023-05-07T10:05:17;5.47;;;1.52;;
40807;SDS011;26523;52.504;13.498;2023-05-07T10:07:45;4.03;;;1.60;;
40807;SDS011;26523;52.504;13.498;2023-05-07T10:10:11;3.22;;;1.40;;
40807;SDS011;26523;52.504;13.498;2023-05-07T10:12:38;2.35;;;1.23;;
40807;SDS011;26523;52.504;13.498;2023-05-07T10:15:08;2.20;;;1.30;;
40807;SDS011;26523;52.504;13.498;2023-05-07T10:17:37;2.75;;;1.30;;
40807;SDS011;26523;52.504;13.498;2023-05-07T10:20:04;4.95;;;1.55;;
40807;SDS011;26523;52.504;13.498;2023-05-07T10:22:33;3.75;;;1.20;;
40807;SDS011;26523;52.504;13.498;2023-05-07T10:25:28;6.18;;;1.58;;
40807;SDS011;26523;52.504;13.498;2023-05-07T10:27:57;4.18;;;1.15;;
40807;SDS011;26523;52.504;13.498;2023-05-07T10:33:28;5.72;;;1.40;;
40807;SDS011;26523;52.504;13.498;2023-05-07T10:35:57;4.28;;;1.20;;
40807;SDS011;26523;52.504;13.498;2023-05-07T10:38:26;4.47;;;1.65;;
40807;SDS011;26523;52.504;13.498;2023-05-07T10:40:52;2.70;;;1.50;;
40807;SDS011;26523;52.504;13.498;2023-05-07T10:43:18;2.90;;;1.42;;
40807;SDS011;26523;52.504;13.498;2023-05-07T10:46:08;2.28;;;1.30;;
40807;SDS011;26523;52.504;13.498;2023-05-07T10:51:35;2.35;;;1.23;;
40807;SDS011;26523;52.504;13.498;2023-05-07T10:56:36;2.13;;;1.30;;
40807;SDS011;26523;52.504;13.498;2023-05-07T11:02:06;3.80;;;1.38;;
40807;SDS011;26523;52.504;13.498;2023-05-07T11:04:34;4.65;;;1.63;;
40807;SDS011;26523;52.504;13.498;2023-05-07T11:15:01;2.55;;;1.35;;
40807;SDS011;26523;52.504;13.498;2023-05-07T11:17:31;2.88;;;1.40;;
40807;SDS011;26523;52.504;13.498;2023-05-07T11:19:59;4.47;;;1.85;;
40807;SDS011;26523;52.504;13.498;2023-05-07T11:25:01;2.30;;;1.20;;
40807;SDS011;26523;52.504;13.498;2023-05-07T11:27:28;2.95;;;1.50;;
40807;SDS011;26523;52.504;13.498;2023-05-07T11:29:54;4.30;;;1.50;;
40807;SDS011;26523;52.504;13.498;2023-05-07T11:32:27;4.72;;;1.60;;
40807;SDS011;26523;52.504;13.498;2023-05-07T11:34:55;2.17;;;1.38;;
40807;SDS011;26523;52.504;13.498;2023-05-07T11:37:22;3.53;;;1.52;;
40807;SDS011;26523;52.504;13.498;2023-05-07T11:39:49;3.17;;;1.58;;
40807;SDS011;26523;52.504;13.498;2023-05-07T11:42:27;4.75;;;1.40;;
40807;SDS011;26523;52.504;13.498;2023-05-07T11:47:19;2.78;;;1.05;;
40807;SDS011;26523;52.504;13.498;2023-05-07T11:49:47;3.30;;;1.23;;
40807;SDS011;26523;52.504;13.498;2023-05-07T11:52:13;2.63;;;1.25;;
40807;SDS011;26523;52.504;13.498;2023-05-07T11:54:39;5.97;;;1.30;;
40807;SDS011;26523;52.504;13.498;2023-05-07T11:57:05;2.53;;;1.33;;
40807;SDS011;26523;52.504;13.498;2023-05-07T11:59:38;5.05;;;1.85;;
40807;SDS011;26523;52.504;13.498;2023-05-07T12:02:05;4.90;;;1.30;;
40807;SDS011;26523;52.504;13.498;2023-05-07T12:04:35;3.65;;;1.40;;
40807;SDS011;26523;52.504;13.498;2023-05-07T12:07:03;3.03;;;1.50;;
40807;SDS011;26523;52.504;13.498;2023-05-07T12:09:28;2.83;;;1.38;;
40807;SDS011;26523;52.504;13.498;2023-05-07T12:11:54;3.83;;;1.50;;
40807;SDS011;26523;52.504;13.498;2023-05-07T12:14:21;2.20;;;1.30;;
40807;SDS011;26523;52.504;13.498;2023-05-07T12:16:46;1.92;;;1.00;;
40807;SDS011;26523;52.504;13.498;2023-05-07T12:19:13;2.55;;;1.40;;
40807;SDS011;26523;52.504;13.498;2023-05-07T12:21:39;3.20;;;1.27;;
40807;SDS011;26523;52.504;13.498;2023-05-07T12:24:05;3.17;;;1.40;;
40807;SDS011;26523;52.504;13.498;2023-05-07T12:26:33;2.08;;;1.23;;
40807;SDS011;26523;52.504;13.498;2023-05-07T12:29:03;4.85;;;1.23;;
40807;SDS011;26523;52.504;13.498;2023-05-07T12:31:28;4.00;;;1.15;;
40807;SDS011;26523;52.504;13.498;2023-05-07T12:33:54;3.70;;;1.38;;
40807;SDS011;26523;52.504;13.498;2023-05-07T12:36:20;4.20;;;1.55;;
40807;SDS011;26523;52.504;13.498;2023-05-07T12:38:46;3.25;;;1.23;;
40807;SDS011;26523;52.504;13.498;2023-05-07T12:41:15;1.65;;;1.02;;
40807;SDS011;26523;52.504;13.498;2023-05-07T12:43:43;2.33;;;1.17;;
40807;SDS011;26523;52.504;13.498;2023-05-07T12:46:10;2.45;;;0.90;;
40807;SDS011;26523;52.504;13.498;2023-05-07T12:48:38;2.92;;;1.30;;
40807;SDS011;26523;52.504;13.498;2023-05-07T12:51:08;8.18;;;1.70;;
40807;SDS011;26523;52.504;13.498;2023-05-07T12:53:39;5.20;;;1.33;;
40807;SDS011;26523;52.504;13.498;2023-05-07T12:56:07;2.70;;;1.35;;
40807;SDS011;26523;52.504;13.498;2023-05-07T12:58:33;1.60;;;0.80;;
40807;SDS011;26523;52.504;13.498;2023-05-07T13:01:00;1.95;;;1.00;;
40807;SDS011;26523;52.504;13.498;2023-05-07T13:03:31;6.00;;;1.33;;
40807;SDS011;26523;52.504;13.498;2023-05-07T13:05:58;3.65;;;1.15;;
40807;SDS011;26523;52.504;13.498;2023-05-07T13:10:54;2.65;;;1.10;;
40807;SDS011;26523;52.504;13.498;2023-05-07T13:13:20;23.35;;;1.85;;
40807;SDS011;26523;52.504;13.498;2023-05-07T13:15:46;4.20;;;1.70;;
40807;SDS011;26523;52.504;13.498;2023-05-07T13:18:12;6.78;;;1.85;;
40807;SDS011;26523;52.504;13.498;2023-05-07T13:20:38;3.22;;;1.30;;
40807;SDS011;26523;52.504;13.498;2023-05-07T13:23:04;7.00;;;2.08;;
40807;SDS011;26523;52.504;13.498;2023-05-07T13:25:29;3.53;;;1.27;;
40807;SDS011;26523;52.504;13.498;2023-05-07T13:27:58;4.75;;;1.45;;
40807;SDS011;26523;52.504;13.498;2023-05-07T13:30:24;2.03;;;1.08;;
40807;SDS011;26523;52.504;13.498;2023-05-07T13:32:50;2.55;;;1.30;;
40807;SDS011;26523;52.504;13.498;2023-05-07T13:35:17;5.28;;;1.58;;
40807;SDS011;26523;52.504;13.498;2023-05-07T13:37:43;2.17;;;1.15;;
40807;SDS011;26523;52.504;13.498;2023-05-07T13:40:08;2.90;;;1.40;;
40807;SDS011;26523;52.504;13.498;2023-05-07T13:42:34;2.22;;;1.33;;
40807;SDS011;26523;52.504;13.498;2023-05-07T13:45:00;1.65;;;1.13;;
40807;SDS011;26523;52.504;13.498;2023-05-07T13:47:30;7.25;;;1.58;;
40807;SDS011;26523;52.504;13.498;2023-05-07T13:49:55;1.95;;;1.15;;
40807;SDS011;26523;52.504;13.498;2023-05-07T13:52:21;2.20;;;1.00;;
40807;SDS011;26523;52.504;13.498;2023-05-07T13:54:47;2.50;;;0.90;;
40807;SDS011;26523;52.504;13.498;2023-05-07T13:57:12;2.50;;;1.30;;
40807;SDS011;26523;52.504;13.498;2023-05-07T13:59:38;3.40;;;1.40;;
40807;SDS011;26523;52.504;13.498;2023-05-07T14:02:04;3.83;;;1.55;;
40807;SDS011;26523;52.504;13.498;2023-05-07T14:04:30;3.75;;;1.13;;
40807;SDS011;26523;52.504;13.498;2023-05-07T14:06:56;4.40;;;1.13;;
40807;SDS011;26523;52.504;13.498;2023-05-07T14:09:21;2.72;;;1.20;;
40807;SDS011;26523;52.504;13.498;2023-05-07T14:11:47;2.92;;;0.93;;
40807;SDS011;26523;52.504;13.498;2023-05-07T14:14:16;2.33;;;1.17;;
40807;SDS011;26523;52.504;13.498;2023-05-07T14:16:42;3.13;;;1.35;;
40807;SDS011;26523;52.504;13.498;2023-05-07T14:19:08;2.45;;;1.00;;
40807;SDS011;26523;52.504;13.498;2023-05-07T14:21:33;2.53;;;1.30;;
40807;SDS011;26523;52.504;13.498;2023-05-07T14:23:59;2.08;;;1.23;;
40807;SDS011;26523;52.504;13.498;2023-05-07T14:26:25;1.27;;;0.88;;
40807;SDS011;26523;52.504;13.498;2023-05-07T14:28:52;2.80;;;0.90;;
40807;SDS011;26523;52.504;13.498;2023-05-07T14:31:19;3.13;;;0.88;;
40807;SDS011;26523;52.504;13.498;2023-05-07T14:33:46;2.40;;;0.80;;
40807;SDS011;26523;52.504;13.498;2023-05-07T14:36:11;2.40;;;1.27;;
40807;SDS011;26523;52.504;13.498;2023-05-07T14:38:37;3.65;;;0.80;;
40807;SDS011;26523;52.504;13.498;2023-05-07T14:41:03;6.32;;;1.00;;
40807;SDS011;26523;52.504;13.498;2023-05-07T14:43:29;3.72;;;1.00;;
40807;SDS011;26523;52.504;13.498;2023-05-07T14:45:54;1.40;;;0.90;;
40807;SDS011;26523;52.504;13.498;2023-05-07T14:48:20;5.30;;;1.10;;
40807;SDS011;26523;52.504;13.498;2023-05-07T14:50:48;2.33;;;1.10;;
40807;SDS011;26523;52.504;13.498;2023-05-07T14:53:15;2.15;;;1.00;;
40807;SDS011;26523;52.504;13.498;2023-05-07T14:55:40;4.15;;;1.13;;
40807;SDS011;26523;52.504;13.498;2023-05-07T14:58:06;1.00;;;0.70;;